• Join FlightAware (Why Join?)
  • Login
  • US Flag 
04:48PM EST


 

Airport Tracker/Info


-or-


 

Live Flight TrackerFlight Track Log ✈ N281SE ✈ 08-Aug-2014 ✈ KAUS - KROW

Flight Track Log - Related Links

Times and Time Zones

All times are in EDT time to prevent confusion due to time zone crossing. See the N281SE flight status page for this flight to view local times or setup timezone preferences in your user account.

Time Position Orientation Groundspeed Altitude Reporting Facility
EDT Latitude Longitude Course Direction KTS MPH feet Rate Location/Type
02:57PM 30.1667 -97.7286 290° West 171 197 3,200  Level Fort Worth Center
02:58PM 30.1958 -97.7689 310° West 169 194 4,400 1,056 Climbing Fort Worth Center
02:59PM 30.2231 -97.8108 307° West 164 189 5,400 1,104 Climbing Fort Worth Center
03:00PM 30.2492 -97.8561 304° West 164 189 6,700 1,256 Climbing Fort Worth Center
03:01PM 30.5033 -97.9066 300° West  Level FlightAware Approximate
03:01PM 30.2822 -97.9106 305° West 166 191 8,100  Level Houston Center
03:02PM 30.5298 -97.9747 290° West  Level FlightAware Approximate
03:02PM 30.3097 -97.9564 305° West 168 193 9,200  Level Houston Center
03:03PM 30.3367 -98.0022 304° West 173 199 10,200 1,016 Climbing Houston Center
03:04PM 30.3653 -98.0508 304° West 179 206 11,300 1,016 Climbing Houston Center
03:05PM 30.3953 -98.1008 305° West 185 213 12,300 1,104 Climbing Houston Center
03:06PM 30.4292 -98.1614 303° West 186 214 13,600 1,152 Climbing Houston Center
03:07PM 30.4511 -98.2156 295° West 187 215 14,700 968 Climbing Houston Center
03:08PM 30.4739 -98.2703 296° West 187 215 15,600 871 Climbing Houston Center
03:09PM 30.4978 -98.3261 296° West 189 217 16,500 968 Climbing Houston Center
03:10PM 30.5211 -98.3808 296° West 190 219 17,600 1,016 Climbing Houston Center
03:11PM 30.5444 -98.4375 296° West 191 220 18,600 960 Climbing Houston Center
03:12PM 30.5731 -98.5044 296° West 191 220 19,600 912 Climbing Houston Center
03:13PM 30.5983 -98.5625 297° West 197 227 20,500 871 Climbing Houston Center
03:14PM 30.6219 -98.6206 295° West 197 227 21,400 919 Climbing Houston Center
03:15PM 30.6481 -98.6808 297° West 203 234 22,400 871 Climbing Houston Center
03:16PM 30.6722 -98.7411 295° West 204 235 23,200 726 Climbing Houston Center
03:17PM 30.6986 -98.8028 296° West 209 241 23,900 384 Climbing Houston Center
03:19PM 30.7336 -98.8856 296° West 236 272 24,000 384 Climbing Houston Center
03:20PM 30.7639 -98.9583 296° West 246 283 24,700 774 Climbing Houston Center
03:21PM 30.7919 -99.0253 296° West 236 272 25,600 629 Climbing Houston Center
03:22PM 30.8206 -99.0933 296° West 233 268 26,000 190 Climbing Houston Center
03:23PM 30.8525 -99.1706 296° West 250 288 26,000  Level Houston Center
03:24PM 30.8842 -99.2483 295° West 262 302 26,000  Level Houston Center
03:25PM 30.9225 -99.3419 296° West 264 304 26,000  Level Houston Center
03:26PM 30.9561 -99.4208 296° West 268 308 26,000  Level Houston Center
03:27PM 30.9875 -99.4986 295° West 269 310 26,000  Level Houston Center
03:28PM 31.0189 -99.5761 295° West 268 308 26,000  Level Houston Center
03:29PM 31.0522 -99.6544 296° West 268 308 26,000  Level Houston Center
03:30PM 31.0831 -99.7319 295° West 267 307 26,000  Level Houston Center
03:31PM 31.1219 -99.8261 296° West 267 307 26,000 -48 Level Houston Center
03:32PM 31.1525 -99.9033 295° West 266 306 25,900  Descending Houston Center
03:33PM 31.1839 -99.9794 296° West 265 305 26,000 51 Climbing Fort Worth Center
03:34PM 31.2158 -100.0581 295° West 268 308 26,000  Level Fort Worth Center
03:35PM 31.2475 -100.1386 295° West 270 311 26,000  Level Fort Worth Center
03:36PM 31.2803 -100.2158 296° West 270 311 26,000  Level Fort Worth Center
03:37PM 31.3114 -100.2947 295° West 270 311 26,000  Level Fort Worth Center
03:38PM 31.3508 -100.3906 296° West 270 311 26,000 -48 Level Fort Worth Center
03:39PM 31.3833 -100.4708 295° West 271 312 25,900  Descending Fort Worth Center
03:40PM 31.4219 -100.5456 301° West 271 312 26,000 48 Climbing Fort Worth Center
03:41PM 31.4614 -100.6250 300° West 271 312 26,000  Level Fort Worth Center
03:42PM 31.4997 -100.7022 300° West 273 314 26,000  Level Fort Worth Center
03:43PM 31.5369 -100.7789 300° West 272 313 26,000  Level Fort Worth Center
03:44PM 31.5828 -100.8708 300° West 272 313 26,000  Level Fort Worth Center
03:45PM 31.6203 -100.9475 300° West 272 313 26,000  Level Fort Worth Center
03:46PM 31.6586 -101.0242 300° West 273 314 26,000  Level Fort Worth Center
03:47PM 31.6961 -101.1014 300° West 273 314 26,000  Level Fort Worth Center
03:48PM 31.7333 -101.1778 300° West 272 313 26,000  Level Fort Worth Center
03:50PM 31.7711 -101.2547 300° West 272 313 26,000  Level Fort Worth Center
03:51PM 31.8158 -101.3458 300° West 271 312 26,000  Level Fort Worth Center
03:52PM 31.8539 -101.4222 300° West 271 312 26,000  Level Fort Worth Center
03:53PM 31.8908 -101.5000 299° West 272 313 26,000  Level Fort Worth Center
03:54PM 31.9272 -101.5772 299° West 272 313 26,000  Level Fort Worth Center
03:55PM 31.9650 -101.6536 300° West 272 313 26,000  Level Fort Worth Center
03:56PM 32.0103 -101.7469 300° West 276 318 26,000  Level Fort Worth Center
03:57PM 32.0458 -101.8225 299° West 269 310 26,000  Level Fort Worth Center
03:58PM 32.0836 -101.9014 299° West 276 318 26,000  Level Fort Worth Center
03:59PM 32.1194 -101.9758 300° West 269 310 26,000  Level Fort Worth Center
04:00PM 32.1586 -102.0594 299° West 269 310 26,000  Level Fort Worth Center
04:01PM 32.1953 -102.1369 299° West 267 307 26,000  Level Fort Worth Center
04:02PM 32.2322 -102.2136 300° West 267 307 26,000  Level Fort Worth Center
04:03PM 32.2675 -102.2897 299° West 267 307 26,000  Level Fort Worth Center
04:04PM 32.3117 -102.3819 300° West 267 307 26,000  Level Fort Worth Center
04:05PM 32.3483 -102.4592 299° West 267 307 26,000  Level Fort Worth Center
04:06PM 32.3836 -102.5369 298° West 267 307 26,000  Level Fort Worth Center
04:07PM 32.4206 -102.6136 300° West 266 306 26,000  Level Fort Worth Center
04:08PM 32.4569 -102.6889 300° West 265 305 26,000  Level Fort Worth Center
04:09PM 32.4931 -102.7650 299° West 265 305 26,000 -65 Level Fort Worth Center
04:11PM 32.5719 -102.9319 299° West 265 305 25,800 -321 Descending Fort Worth Center
04:12PM 32.6092 -103.0108 299° West 268 308 25,000 -768 Descending Fort Worth Center
04:13PM 32.6450 -103.0872 299° West 270 311 24,200 -783 Descending Fort Worth Center
04:15PM 32.7136 -103.2369 299° West 263 303 22,600 -783 Descending Albuquerque Center
04:16PM 32.7461 -103.3100 298° West 256 295 21,800 -774 Descending Albuquerque Center
04:17PM 32.7783 -103.3803 299° West 249 287 21,000 -774 Descending Albuquerque Center
04:19PM 32.8167 -103.4636 299° West 242 278 20,200 -488 Descending Albuquerque Center
04:20PM 32.8478 -103.5292 299° West 233 268 20,000 -98 Descending Albuquerque Center
04:21PM 32.8764 -103.5933 298° West 225 259 20,000 -435 Level Albuquerque Center
04:22PM 32.9061 -103.6600 298° West 225 259 19,100 -871 Descending Albuquerque Center
04:23PM 32.9375 -103.7411 295° West 237 273 18,200 -532 Descending Albuquerque Center
04:24PM 32.9650 -103.8078 296° West 228 262 18,000 -146 Descending Albuquerque Center
04:25PM 32.9939 -103.8719 298° West 222 255 17,900 -780 Descending Albuquerque Center
04:26PM 33.0250 -103.9436 297° West 223 257 16,400 -1,452 Descending Albuquerque Center
04:27PM 33.0536 -104.0100 297° West 225 259 14,900 -1,500 Descending Albuquerque Center
04:28PM 33.0911 -104.0756 304° West 224 258 13,300 -1,463 Descending Albuquerque Center
04:29PM 33.1244 -104.1356 304° West 221 254 11,900 -1,317 Descending Albuquerque Center
04:30PM 33.1544 -104.1972 300° West 218 251 10,600 -1,210 Descending Albuquerque Center
04:31PM 33.1839 -104.2656 297° West 216 249 9,400 -1,113 Descending Albuquerque Center
04:32PM 33.2133 -104.3319 298° West 222 255 8,300 -1,070 Descending Albuquerque Center
04:34PM 33.2322 -104.4678 279° West 203 234 6,100 -973 Descending Albuquerque Center
04:35PM 33.2356 -104.5258 274° West 182 209 5,300 -871 Descending Albuquerque Center
04:36PM 33.2661 -104.5569 320° Northwest 148 170 4,300 -823 Descending Albuquerque Center
04:37PM 33.2903 -104.5319 41° Northeast 108 124 3,600 -677 Descending Albuquerque Center
04:39PM 33.3000 -104.5167 301° West  Level FlightAware Approximate